KEAT/EAT METAR and TAF weather

Enter ICAO airport designator
Station Type Date Time Source
KEAT METAR 2019/05/21 19:55 UTC NOAA

KEAT 211955Z AUTO VRB05KT 10SM OVC080 18/01 A2966 RMK AO2 SLP040 T01780006 TSNO


Station Type Date Time Source
KEAT Decoded METAR 2019/05/21 19:55 UTC NOAA

WENATCHEE PANGBORN MEMO, WA, United States (KEAT) 47-24N 120-12W 377M
May 21, 2019 - 03:55 PM EDT / 2019.05.21 1955 UTC
Wind: Variable at 6 MPH (5 KT):0
Visibility: 10 mile(s):0
Sky conditions: overcast
Temperature: 64.0 F (17.8 C)
Dew Point: 33.1 F (0.6 C)
Relative Humidity: 31%
Pressure (altimeter): 29.66 in. Hg (1004 hPa)
ob: KEAT 211955Z AUTO VRB05KT 10SM OVC080 18/01 A2966 RMK AO2 SLP040 T01780006 TSNO
cycle: 20

Station Type Date Time Source
KEAT TAF 2019/05/21 18:45 UTC NOAA

TAF KEAT 211742Z 2118/2218 28006KT P6SM BKN070
FM211930 10005KT P6SM BKN070
FM220100 32008KT P6SM SCT100 BKN120

Example: see airport list